createdAt,value
2018-01-23T00:03:53.572Z,13.00
2018-01-23T00:08:36.966Z,15.80
2018-01-23T00:13:20.316Z,15.93
2018-01-23T00:18:03.629Z,23.90
2018-01-23T00:22:46.995Z,21.17
2018-01-23T00:27:30.542Z,23.30
2018-01-23T00:32:13.894Z,23.80
2018-01-23T00:36:57.187Z,27.57
2018-01-23T00:41:41.293Z,26.50
2018-01-23T00:46:24.682Z,33.07
2018-01-23T00:51:08.810Z,32.83
2018-01-23T00:55:52.093Z,38.70
2018-01-23T01:00:35.415Z,43.60
2018-01-23T01:05:19.518Z,45.67
2018-01-23T01:10:02.841Z,41.80
2018-01-23T01:14:46.254Z,45.87
2018-01-23T01:19:29.596Z,45.80
2018-01-23T01:24:12.870Z,40.17
2018-01-23T01:28:56.190Z,42.43
2018-01-23T01:33:40.413Z,44.13
2018-01-23T01:38:23.726Z,39.57
2018-01-23T01:43:07.071Z,37.47
2018-01-23T01:47:50.457Z,28.13
2018-01-23T01:52:33.738Z,30.83
2018-01-23T01:57:17.069Z,33.40
2018-01-23T02:02:00.485Z,28.63
2018-01-23T02:06:44.557Z,26.57
2018-01-23T02:11:27.890Z,26.73
2018-01-23T02:16:11.289Z,24.13
2018-01-23T02:20:54.619Z,24.03
2018-01-23T02:25:37.951Z,16.97
2018-01-23T02:30:21.304Z,11.47
2018-01-23T02:35:04.644Z,11.63
2018-01-23T02:39:47.995Z,10.63
2018-01-23T02:44:31.330Z,10.57
2018-01-23T02:49:14.641Z,8.77
2018-01-23T02:53:57.967Z,9.10
2018-01-23T02:58:41.288Z,7.77
2018-01-23T03:03:25.362Z,7.60
2018-01-23T03:08:08.693Z,7.60
2018-01-23T03:12:53.061Z,8.33
2018-01-23T03:17:37.094Z,6.77
2018-01-23T03:22:20.440Z,7.57
2018-01-23T03:27:04.508Z,8.23
2018-01-23T03:31:48.624Z,9.93
2018-01-23T03:36:31.943Z,9.50
2018-01-23T03:41:15.558Z,10.20
2018-01-23T03:45:59.588Z,10.07
2018-01-23T03:50:42.918Z,11.10
2018-01-23T03:55:27.019Z,10.37
2018-01-23T04:00:10.339Z,10.83
2018-01-23T04:04:54.481Z,12.30
2018-01-23T04:09:37.797Z,16.37
2018-01-23T04:14:21.092Z,15.50
2018-01-23T04:19:05.173Z,15.90
2018-01-23T04:23:48.535Z,16.17
2018-01-23T04:28:31.882Z,17.50
2018-01-23T04:33:15.308Z,17.70
2018-01-23T04:37:58.890Z,16.13
2018-01-23T04:42:42.351Z,13.77
2018-01-23T04:47:25.709Z,16.43
2018-01-23T04:52:09.052Z,20.53
2018-01-23T04:56:52.400Z,20.90
2018-01-23T05:01:35.735Z,18.77
2018-01-23T05:06:19.333Z,17.07
2018-01-23T05:11:02.643Z,13.07
2018-01-23T05:15:45.971Z,15.33
2018-01-23T05:20:29.315Z,20.97
2018-01-23T05:25:12.632Z,20.67
2018-01-23T05:29:55.992Z,25.63
2018-01-23T05:34:39.368Z,17.13
2018-01-23T05:39:22.772Z,23.90
2018-01-23T05:44:07.358Z,22.43
2018-01-23T05:48:51.498Z,15.47
2018-01-23T05:53:34.859Z,8.53
2018-01-23T05:58:18.220Z,8.07
2018-01-23T06:03:01.566Z,9.83
2018-01-23T06:07:44.888Z,10.57
2018-01-23T06:12:28.182Z,11.97
2018-01-23T06:17:11.522Z,9.73
2018-01-23T06:21:55.655Z,17.47
2018-01-23T06:26:39.138Z,20.97
2018-01-23T06:31:22.542Z,26.37
2018-01-23T06:36:06.666Z,30.20
2018-01-23T06:40:50.038Z,29.83
2018-01-23T06:45:33.446Z,32.20
2018-01-23T06:50:16.800Z,25.70
2018-01-23T06:55:00.187Z,24.83
2018-01-23T06:59:43.513Z,20.37
2018-01-23T07:04:27.615Z,24.60
2018-01-23T07:09:12.086Z,22.90
2018-01-23T07:13:55.375Z,25.53
2018-01-23T07:18:38.773Z,22.20
2018-01-23T07:23:22.098Z,30.60
2018-01-23T07:28:05.436Z,32.53
2018-01-23T07:32:48.738Z,27.30
2018-01-23T07:37:32.146Z,25.37
2018-01-23T07:42:15.517Z,30.00
2018-01-23T07:46:59.631Z,29.97
2018-01-23T07:51:43.004Z,30.80
2018-01-23T07:56:26.371Z,25.83
2018-01-23T08:01:10.477Z,29.97
2018-01-23T08:05:54.136Z,27.23
2018-01-23T08:10:37.428Z,28.33
2018-01-23T08:15:20.780Z,25.17
2018-01-23T08:20:05.750Z,27.73
2018-01-23T08:24:49.095Z,21.80
2018-01-23T08:29:32.427Z,28.23
2018-01-23T08:34:16.035Z,22.83
2018-01-23T08:38:59.358Z,26.47
2018-01-23T08:43:42.680Z,21.77
2018-01-23T08:48:26.020Z,22.87
2018-01-23T08:53:09.354Z,26.57
2018-01-23T08:57:52.699Z,25.93
2018-01-23T09:02:36.041Z,23.00
2018-01-23T09:07:19.381Z,23.93
2018-01-23T09:12:02.682Z,21.93
2018-01-23T09:16:46.058Z,17.97
2018-01-23T09:21:29.390Z,19.00
2018-01-23T09:26:12.733Z,18.07
2018-01-23T09:30:56.078Z,18.17
2018-01-23T09:35:39.679Z,17.50
2018-01-23T09:40:22.949Z,16.37
2018-01-23T09:45:06.408Z,16.93
2018-01-23T09:49:49.736Z,17.93
2018-01-23T09:54:33.101Z,18.23
2018-01-23T09:59:16.429Z,19.93
2018-01-23T10:03:59.727Z,18.20
2018-01-23T10:08:43.057Z,20.10
2018-01-23T10:13:26.367Z,20.77
2018-01-23T10:18:09.705Z,18.80
2018-01-23T10:22:53.069Z,18.57
2018-01-23T10:27:37.170Z,17.90
2018-01-23T10:32:20.486Z,22.93
2018-01-23T10:37:04.594Z,21.23
2018-01-23T10:41:48.011Z,20.53
2018-01-23T10:46:31.358Z,20.00
2018-01-23T10:51:14.719Z,24.60
2018-01-23T10:55:58.082Z,17.47
2018-01-23T11:00:47.718Z,22.07
2018-01-23T11:05:31.069Z,18.30
2018-01-23T11:10:14.393Z,22.40
2018-01-23T11:14:57.744Z,19.87
2018-01-23T11:19:41.072Z,19.23
2018-01-23T11:24:24.657Z,21.13
2018-01-23T11:29:07.931Z,20.67
2018-01-23T11:33:52.079Z,23.27
2018-01-23T11:38:35.449Z,23.23
2018-01-23T11:43:18.753Z,19.30
2018-01-23T11:48:02.108Z,24.47
2018-01-23T11:52:45.430Z,24.63
2018-01-23T11:57:28.777Z,21.97
2018-01-23T12:02:12.149Z,23.27
2018-01-23T12:06:55.465Z,19.70
2018-01-23T12:11:39.573Z,23.10
2018-01-23T12:16:22.904Z,24.37
2018-01-23T12:21:06.210Z,23.17
2018-01-23T12:25:49.518Z,26.23
2018-01-23T12:30:32.866Z,29.00
2018-01-23T12:35:16.185Z,28.20
2018-01-23T12:39:59.505Z,26.33
2018-01-23T12:44:42.829Z,26.10
2018-01-23T12:49:26.161Z,22.37
2018-01-23T12:54:09.546Z,26.50
2018-01-23T12:58:52.863Z,22.77
2018-01-23T13:03:36.224Z,24.20
2018-01-23T13:08:19.544Z,22.30
2018-01-23T13:13:03.101Z,20.83
2018-01-23T13:17:46.409Z,18.30
2018-01-23T13:22:29.729Z,20.30
2018-01-23T13:27:13.852Z,19.47
2018-01-23T13:31:57.185Z,20.33
2018-01-23T13:36:40.780Z,21.27
2018-01-23T13:41:24.101Z,14.80
2018-01-23T13:46:07.398Z,18.20
2018-01-23T13:50:50.753Z,17.53
2018-01-23T13:55:34.169Z,18.67
2018-01-23T14:00:17.557Z,20.87
2018-01-23T14:05:00.826Z,16.90
2018-01-23T14:09:44.185Z,19.00
2018-01-23T14:14:28.275Z,17.10
2018-01-23T14:19:11.585Z,16.47
2018-01-23T14:23:54.933Z,16.90
2018-01-23T14:28:38.273Z,17.47
2018-01-23T14:33:21.592Z,17.27
2018-01-23T14:38:05.850Z,15.23
2018-01-23T14:42:49.697Z,14.83
2018-01-23T14:47:33.037Z,13.93
2018-01-23T14:52:16.356Z,16.50
2018-01-23T14:56:59.682Z,14.57
2018-01-23T15:01:43.014Z,12.63
2018-01-23T15:06:26.434Z,15.57
2018-01-23T15:11:09.801Z,14.70
2018-01-23T15:15:53.176Z,10.90
2018-01-23T15:20:36.535Z,14.70
2018-01-23T15:25:20.600Z,14.83
2018-01-23T15:30:03.948Z,17.33
2018-01-23T15:34:47.309Z,13.53
2018-01-23T15:39:30.858Z,16.87
2018-01-23T15:44:14.189Z,12.63
2018-01-23T15:48:57.531Z,12.93
2018-01-23T15:53:40.900Z,12.37
2018-01-23T15:58:24.238Z,15.43
2018-01-23T16:03:07.578Z,14.50
2018-01-23T16:07:50.940Z,15.33
2018-01-23T16:12:34.501Z,17.70
2018-01-23T16:17:17.839Z,19.17
2018-01-23T16:22:01.172Z,18.03
2018-01-23T16:26:45.279Z,14.27
2018-01-23T16:31:28.731Z,14.53
2018-01-23T16:36:12.075Z,15.40
2018-01-23T16:40:55.378Z,16.33
2018-01-23T16:45:38.790Z,15.53
2018-01-23T16:50:22.109Z,13.83
2018-01-23T16:55:06.014Z,17.00
2018-01-23T16:59:49.420Z,17.53
2018-01-23T17:04:32.759Z,16.13
2018-01-23T17:09:16.098Z,16.60
2018-01-23T17:13:59.439Z,16.43
2018-01-23T17:18:42.817Z,17.43
2018-01-23T17:23:26.201Z,15.80
2018-01-23T17:28:09.492Z,15.90
2018-01-23T17:32:52.828Z,15.23
2018-01-23T17:37:36.212Z,26.27
2018-01-23T17:42:19.623Z,18.23
2018-01-23T17:47:02.944Z,17.50
2018-01-23T17:51:46.296Z,18.20
2018-01-23T17:56:29.706Z,17.40
2018-01-23T18:01:13.042Z,16.73
2018-01-23T18:05:56.356Z,16.87
2018-01-23T18:10:39.711Z,18.73
2018-01-23T18:15:23.037Z,18.00
2018-01-23T18:20:06.384Z,16.50
2018-01-23T18:24:49.723Z,17.47
2018-01-23T18:29:33.094Z,16.63
2018-01-23T18:34:16.410Z,16.30
2018-01-23T18:38:59.738Z,15.57
2018-01-23T18:43:43.142Z,15.23
2018-01-23T18:48:26.551Z,13.07
2018-01-23T18:53:09.832Z,14.13
2018-01-23T18:57:53.165Z,13.07
2018-01-23T19:02:36.577Z,15.50
2018-01-23T19:07:20.685Z,15.33
2018-01-23T19:12:04.078Z,16.27
2018-01-23T19:16:47.667Z,13.77
2018-01-23T19:21:30.959Z,12.60
2018-01-23T19:26:14.342Z,10.90
2018-01-23T19:30:57.739Z,11.97
2018-01-23T19:35:42.228Z,12.15
2018-01-23T19:40:26.473Z,11.00
2018-01-23T19:45:09.967Z,8.47
2018-01-23T19:49:53.306Z,11.37
2018-01-23T19:54:36.628Z,9.50
2018-01-23T19:59:20.009Z,10.13
2018-01-23T20:04:03.336Z,10.43
2018-01-23T20:08:46.674Z,9.50
2018-01-23T20:13:29.984Z,8.73
2018-01-23T20:18:14.087Z,8.60
2018-01-23T20:22:57.516Z,7.70
2018-01-23T20:27:40.850Z,7.73
2018-01-23T20:32:25.170Z,7.00
2018-01-23T20:37:08.590Z,6.70
2018-01-23T20:41:51.908Z,6.07
2018-01-23T20:46:35.267Z,5.10
2018-01-23T20:51:18.584Z,7.93
2018-01-23T20:56:01.938Z,6.50
2018-01-23T21:00:45.376Z,5.63
2018-01-23T21:05:29.916Z,4.87
2018-01-23T21:10:13.222Z,7.80
2018-01-23T21:14:57.379Z,7.67
2018-01-23T21:19:40.826Z,6.63
2018-01-23T21:24:24.251Z,6.37
2018-01-23T21:29:08.377Z,10.17
2018-01-23T21:33:51.725Z,8.83
2018-01-23T21:38:35.167Z,7.57
2018-01-23T21:43:18.541Z,6.90
2018-01-23T21:48:01.883Z,6.57
2018-01-23T21:52:45.957Z,6.43
2018-01-23T21:57:29.286Z,9.97
2018-01-23T22:02:12.646Z,6.27
2018-01-23T22:06:57.041Z,7.07
2018-01-23T22:11:40.317Z,7.73
2018-01-23T22:16:23.764Z,8.73
2018-01-23T22:21:07.091Z,7.93
2018-01-23T22:25:50.514Z,6.67
2018-01-23T22:30:34.266Z,9.47
2018-01-23T22:35:17.597Z,7.30
2018-01-23T22:40:00.943Z,8.27
2018-01-23T22:44:44.383Z,5.67
2018-01-23T22:49:27.710Z,5.33
2018-01-23T22:54:11.060Z,6.07
2018-01-23T22:58:54.349Z,7.07
2018-01-23T23:03:37.935Z,7.33
2018-01-23T23:08:21.265Z,5.00
2018-01-23T23:13:04.751Z,4.50
2018-01-23T23:17:48.042Z,6.57
2018-01-23T23:22:31.368Z,7.13
2018-01-23T23:27:15.756Z,6.97
2018-01-23T23:31:59.033Z,5.63
2018-01-23T23:36:42.342Z,6.10
2018-01-23T23:41:25.699Z,6.07
2018-01-23T23:46:09.012Z,5.60
2018-01-23T23:50:52.318Z,5.27
2018-01-23T23:55:36.412Z,4.70
